Date,TemperatureHighF,TemperatureAvgF,TemperatureLowF,DewpointHighF,DewpointAvgF,DewpointLowF,HumidityHigh,HumidityAvg,HumidityLow,PressureMaxIn,PressureMinIn,WindSpeedMaxMPH,WindSpeedAvgMPH,GustSpeedMaxMPH,PrecipitationSumIn
2013-3-1,76.1,58.0,42.2,50.2,46.0,40.7,96,70,30,0.00,0.00,6,3,11,0.00
2013-3-6,55.8,46.5,35.8,43.0,39.7,34.6,96,78,56,0.00,0.00,9,3,20,0.00
2013-3-7,54.2,43.7,32.3,42.6,36.9,31.3,97,79,52,0.00,0.00,5,2,10,0.00
2013-3-8,62.8,48.4,38.4,40.7,37.5,34.3,86,68,42,0.00,0.00,11,6,21,0.00
2013-3-9,71.1,53.8,40.6,42.5,37.5,32.5,81,57,26,0.00,0.00,8,5,16,0.00
2013-3-10,74.1,55.4,42.0,43.3,38.7,35.9,87,58,29,0.00,0.00,7,3,12,0.00
2013-3-11,42.0,39.3,36.7,38.3,37.1,35.1,95,92,87,0.00,0.00,2,1,3,0.00
2013-3-13,79.3,62.7,39.0,53.5,46.7,38.0,97,62,26,0.00,0.00,5,2,10,0.00
2013-3-14,75.8,57.0,44.0,52.8,44.9,38.3,97,69,28,0.00,0.00,9,3,17,0.00
2013-3-15,76.4,58.4,47.6,47.8,44.2,40.5,83,62,33,0.00,0.00,10,4,19,0.00
2013-3-16,73.4,59.1,47.4,45.7,42.1,38.1,81,57,30,0.00,0.00,11,6,20,0.00
2013-3-17,71.6,55.4,44.7,43.2,39.1,33.8,83,58,27,0.00,0.00,10,5,20,0.00
2013-3-18,67.7,54.1,39.6,47.5,41.2,34.3,89,64,39,0.00,0.00,5,2,10,0.00
2013-3-19,59.7,51.1,38.8,50.2,40.8,30.2,94,70,38,0.00,0.00,7,2,13,0.00
2013-3-20,60.9,52.1,45.9,53.0,48.2,41.7,96,87,71,0.00,0.00,5,3,12,0.10
2013-3-21,65.1,51.3,40.6,42.1,39.0,37.0,89,65,38,0.00,0.00,8,5,17,0.29
2013-3-22,66.9,52.4,41.8,37.7,34.3,28.1,75,53,29,0.00,0.00,9,6,18,0.00
2013-3-23,72.0,52.4,36.4,44.1,37.0,30.4,89,60,25,0.00,0.00,6,2,12,0.00
2013-3-24,72.8,53.9,37.3,45.8,40.8,35.0,93,66,35,0.00,0.00,7,2,13,0.00
2013-3-25,61.4,48.0,35.4,48.0,41.8,34.2,97,81,51,0.00,0.00,7,3,14,0.00
2013-3-26,67.2,50.9,38.3,48.9,43.5,37.1,96,78,49,0.00,0.00,7,3,13,0.00
2013-3-27,60.9,52.0,40.9,50.5,46.7,39.4,96,83,67,0.00,0.00,7,2,12,0.00
2013-3-28,63.6,53.6,45.0,52.7,49.0,44.0,97,85,66,0.00,0.00,5,2,10,0.00
2013-3-29,76.3,58.2,40.2,53.6,47.9,39.4,98,73,40,0.00,0.00,7,3,15,0.01
2013-3-30,65.5,57.0,51.5,53.1,50.5,46.8,95,80,57,0.00,0.00,10,3,16,0.00
2013-3-31,60.5,54.6,50.7,53.4,52.0,49.7,97,91,73,0.00,0.00,6,2,12,0.06